createdAt,value
2023-04-22T00:01:33.736Z,9.80
2023-04-22T00:04:00.968Z,9.80
2023-04-22T00:06:28.117Z,9.80
2023-04-22T00:08:54.894Z,9.80
2023-04-22T00:11:22.650Z,9.80
2023-04-22T00:13:51.649Z,9.80
2023-04-22T00:16:18.515Z,9.80
2023-04-22T00:18:45.423Z,9.80
2023-04-22T00:21:12.062Z,9.90
2023-04-22T00:23:38.668Z,9.80
2023-04-22T00:26:05.818Z,9.80
2023-04-22T00:28:32.747Z,9.80
2023-04-22T00:30:59.655Z,9.80
2023-04-22T00:33:26.244Z,9.80
2023-04-22T00:35:54.615Z,9.90
2023-04-22T00:38:21.495Z,9.90
2023-04-22T00:40:48.192Z,9.90
2023-04-22T00:43:16.310Z,9.90
2023-04-22T00:45:43.163Z,9.90
2023-04-22T00:48:09.781Z,10.00
2023-04-22T00:50:36.474Z,10.00
2023-04-22T00:53:03.101Z,10.00
2023-04-22T00:55:30.200Z,10.10
2023-04-22T00:57:58.323Z,10.20
2023-04-22T01:00:27.415Z,10.30
2023-04-22T01:02:58.014Z,10.30
2023-04-22T01:05:24.999Z,10.40
2023-04-22T01:07:51.670Z,10.40
2023-04-22T01:10:18.575Z,10.40
2023-04-22T01:12:45.173Z,10.40
2023-04-22T01:15:11.940Z,10.40
2023-04-22T01:17:38.640Z,10.50
2023-04-22T01:20:05.645Z,10.50
2023-04-22T01:22:35.348Z,10.50
2023-04-22T01:25:02.696Z,10.60
2023-04-22T01:27:29.433Z,10.60
2023-04-22T01:29:56.065Z,10.60
2023-04-22T01:32:22.850Z,10.60
2023-04-22T01:34:52.013Z,10.70
2023-04-22T01:37:18.706Z,10.70
2023-04-22T01:39:45.694Z,10.80
2023-04-22T01:42:12.395Z,10.80
2023-04-22T01:44:39.009Z,10.90
2023-04-22T01:47:06.010Z,10.90
2023-04-22T01:49:32.677Z,11.00
2023-04-22T01:51:59.243Z,11.00
2023-04-22T01:54:26.088Z,11.10
2023-04-22T01:56:53.479Z,11.10
2023-04-22T01:59:20.956Z,11.20
2023-04-22T02:01:48.045Z,11.20
2023-04-22T02:04:14.744Z,11.20
2023-04-22T02:06:41.458Z,11.20
2023-04-22T02:09:08.095Z,11.20
2023-04-22T02:11:34.692Z,11.20
2023-04-22T02:14:01.273Z,11.30
2023-04-22T02:16:27.994Z,11.30
2023-04-22T02:18:54.741Z,11.30
2023-04-22T02:21:21.381Z,11.20
2023-04-22T02:23:48.043Z,11.20
2023-04-22T02:26:14.624Z,11.30
2023-04-22T02:28:41.666Z,11.30
2023-04-22T02:31:08.260Z,11.30
2023-04-22T02:33:37.667Z,11.30
2023-04-22T02:36:04.287Z,11.40
2023-04-22T02:38:30.995Z,11.40
2023-04-22T02:40:57.537Z,11.40
2023-04-22T02:43:24.217Z,11.40
2023-04-22T02:45:52.106Z,11.50
2023-04-22T02:48:18.695Z,11.50
2023-04-22T02:50:45.331Z,11.50
2023-04-22T02:53:11.901Z,11.50
2023-04-22T02:55:39.414Z,11.50
2023-04-22T02:58:06.490Z,11.60
2023-04-22T03:00:33.169Z,11.60
2023-04-22T03:03:00.107Z,11.60
2023-04-22T03:05:27.812Z,11.50
2023-04-22T03:07:54.650Z,11.40
2023-04-22T03:10:21.412Z,11.40
2023-04-22T03:12:48.955Z,11.40
2023-04-22T03:15:16.496Z,11.40
2023-04-22T03:17:44.141Z,11.30
2023-04-22T03:20:11.637Z,11.30
2023-04-22T03:22:38.280Z,11.20
2023-04-22T03:25:05.335Z,11.20
2023-04-22T03:27:32.045Z,11.20
2023-04-22T03:29:58.602Z,11.20
2023-04-22T03:32:25.392Z,11.20
2023-04-22T03:34:51.947Z,11.20
2023-04-22T03:37:18.570Z,11.20
2023-04-22T03:39:47.590Z,11.20
2023-04-22T03:42:14.937Z,11.30
2023-04-22T03:44:41.768Z,11.30
2023-04-22T03:47:08.316Z,11.40
2023-04-22T03:49:35.024Z,11.40
2023-04-22T03:52:01.636Z,11.40
2023-04-22T03:54:28.269Z,11.50
2023-04-22T03:56:55.054Z,11.40
2023-04-22T03:59:21.699Z,11.50
2023-04-22T04:01:50.765Z,11.50
2023-04-22T04:04:17.610Z,11.50
2023-04-22T04:06:44.385Z,11.50
2023-04-22T04:09:11.007Z,11.40
2023-04-22T04:11:37.661Z,11.40
2023-04-22T04:14:04.513Z,11.40
2023-04-22T04:16:31.401Z,11.40
2023-04-22T04:18:58.099Z,11.40
2023-04-22T04:21:24.814Z,11.40
2023-04-22T04:23:51.538Z,11.40
2023-04-22T04:26:18.140Z,11.40
2023-04-22T04:28:44.812Z,11.40
2023-04-22T04:31:11.444Z,11.40
2023-04-22T04:33:38.046Z,11.40
2023-04-22T04:36:05.135Z,11.50
2023-04-22T04:38:32.283Z,11.50
2023-04-22T04:40:59.128Z,11.50
2023-04-22T04:43:27.087Z,11.50
2023-04-22T04:45:53.744Z,11.50
2023-04-22T04:48:20.411Z,11.60
2023-04-22T04:50:48.756Z,11.60
2023-04-22T04:53:15.685Z,11.60
2023-04-22T04:55:42.537Z,11.60
2023-04-22T04:58:09.384Z,11.70
2023-04-22T05:00:38.791Z,11.60
2023-04-22T05:03:14.329Z,11.70
2023-04-22T05:08:07.092Z,11.70
2023-04-22T05:10:33.819Z,11.70
2023-04-22T05:13:02.753Z,11.70
2023-04-22T05:15:30.674Z,11.80
2023-04-22T05:17:57.353Z,11.80
2023-04-22T05:20:24.027Z,11.80
2023-04-22T05:22:50.553Z,11.80
2023-04-22T05:25:17.356Z,11.90
2023-04-22T05:27:43.929Z,11.90
2023-04-22T05:30:10.832Z,12.00
2023-04-22T05:32:37.623Z,12.00
2023-04-22T05:35:04.506Z,12.10
2023-04-22T05:37:31.230Z,12.10
2023-04-22T05:39:57.872Z,12.20
2023-04-22T05:42:24.567Z,12.30
2023-04-22T05:44:51.312Z,12.40
2023-04-22T05:47:17.979Z,12.40
2023-04-22T05:49:44.705Z,12.40
2023-04-22T05:52:11.244Z,12.50
2023-04-22T05:54:37.869Z,12.50
2023-04-22T05:57:04.611Z,12.40
2023-04-22T05:59:31.363Z,12.40
2023-04-22T06:01:58.022Z,12.40
2023-04-22T06:04:24.825Z,12.40
2023-04-22T06:06:53.976Z,12.50
2023-04-22T06:09:21.396Z,12.50
2023-04-22T06:11:48.233Z,12.50
2023-04-22T06:14:14.787Z,12.50
2023-04-22T06:16:41.521Z,12.60
2023-04-22T06:19:08.264Z,12.60
2023-04-22T06:21:36.957Z,12.70
2023-04-22T06:24:05.277Z,12.70
2023-04-22T06:26:32.056Z,12.80
2023-04-22T06:28:58.657Z,12.80
2023-04-22T06:31:25.273Z,12.90
2023-04-22T06:33:51.966Z,13.00
2023-04-22T06:36:18.741Z,13.10
2023-04-22T06:38:45.394Z,13.20
2023-04-22T06:41:12.075Z,13.30
2023-04-22T06:43:38.768Z,13.40
2023-04-22T06:46:05.703Z,13.60
2023-04-22T06:48:32.428Z,13.70
2023-04-22T06:51:00.892Z,13.80
2023-04-22T06:53:27.635Z,13.80
2023-04-22T06:55:54.777Z,13.90
2023-04-22T06:58:21.746Z,13.90
2023-04-22T07:00:48.458Z,14.00
2023-04-22T07:03:15.394Z,14.10
2023-04-22T07:05:42.109Z,14.10
2023-04-22T07:08:11.861Z,14.10
2023-04-22T07:10:38.612Z,14.30
2023-04-22T07:13:05.384Z,14.30
2023-04-22T07:15:32.257Z,14.50
2023-04-22T07:18:01.874Z,14.60
2023-04-22T07:20:28.916Z,14.70
2023-04-22T07:22:55.759Z,14.90
2023-04-22T07:25:22.988Z,15.00
2023-04-22T07:27:49.644Z,15.00
2023-04-22T07:30:16.480Z,15.00
2023-04-22T07:32:43.289Z,15.10
2023-04-22T07:35:10.209Z,15.20
2023-04-22T07:37:39.155Z,15.20
2023-04-22T07:40:11.534Z,15.30
2023-04-22T07:42:40.101Z,15.50
2023-04-22T07:45:07.482Z,15.60
2023-04-22T07:47:34.377Z,15.70
2023-04-22T07:50:01.429Z,15.80
2023-04-22T07:52:29.677Z,15.90
2023-04-22T07:54:56.523Z,16.00
2023-04-22T07:57:24.028Z,16.10
2023-04-22T07:59:51.681Z,16.20
2023-04-22T08:02:18.508Z,16.50
2023-04-22T08:04:48.052Z,16.60
2023-04-22T08:07:31.821Z,16.70
2023-04-22T08:10:00.079Z,16.90
2023-04-22T08:12:27.030Z,16.90
2023-04-22T08:14:54.152Z,17.10
2023-04-22T08:17:22.247Z,17.40
2023-04-22T08:19:49.198Z,17.60
2023-04-22T08:22:18.478Z,17.70
2023-04-22T08:24:45.226Z,17.80
2023-04-22T08:27:12.074Z,17.90
2023-04-22T08:29:39.067Z,17.90
2023-04-22T08:32:06.059Z,17.90
2023-04-22T08:34:32.679Z,17.80
2023-04-22T08:37:01.591Z,18.00
2023-04-22T08:39:30.366Z,18.10
2023-04-22T08:41:58.102Z,18.10
2023-04-22T08:44:25.685Z,18.20
2023-04-22T08:46:52.950Z,18.00
2023-04-22T08:49:19.979Z,18.00
2023-04-22T08:51:46.608Z,18.10
2023-04-22T08:54:13.507Z,18.10
2023-04-22T08:56:44.617Z,18.20
2023-04-22T08:59:11.868Z,18.30
2023-04-22T09:01:39.055Z,18.40
2023-04-22T09:04:06.399Z,18.50
2023-04-22T09:06:33.479Z,18.70
2023-04-22T09:09:00.628Z,18.70
2023-04-22T09:11:27.777Z,18.80
2023-04-22T09:13:54.782Z,19.00
2023-04-22T09:16:21.477Z,19.20
2023-04-22T09:18:48.114Z,19.20
2023-04-22T09:21:14.767Z,19.70
2023-04-22T09:23:51.710Z,20.20
2023-04-22T09:26:26.101Z,20.50
2023-04-22T09:28:58.631Z,20.50
2023-04-22T09:31:25.360Z,20.90
2023-04-22T09:33:52.913Z,20.60
2023-04-22T09:36:23.741Z,20.60
2023-04-22T09:38:57.567Z,20.30
2023-04-22T09:41:42.110Z,20.30
2023-04-22T09:46:36.816Z,20.20
2023-04-22T09:49:05.753Z,19.90
2023-04-22T09:51:35.160Z,19.40
2023-04-22T09:54:05.154Z,19.60
2023-04-22T09:56:42.001Z,20.20
2023-04-22T09:59:09.053Z,20.70
2023-04-22T10:01:42.483Z,21.50
2023-04-22T10:04:15.118Z,22.40
2023-04-22T10:06:44.878Z,22.70
2023-04-22T10:09:12.372Z,22.90
2023-04-22T10:11:40.705Z,23.20
2023-04-22T10:14:10.605Z,23.60
2023-04-22T10:16:38.609Z,22.60
2023-04-22T10:19:06.575Z,21.50
2023-04-22T10:21:33.456Z,20.90
2023-04-22T10:24:00.282Z,20.50
2023-04-22T10:26:38.883Z,20.50
2023-04-22T10:29:17.160Z,20.70
2023-04-22T10:32:08.497Z,21.40
2023-04-22T10:34:40.752Z,21.80
2023-04-22T10:37:08.738Z,22.00
2023-04-22T10:39:36.710Z,22.30
2023-04-22T10:42:03.453Z,22.20
2023-04-22T10:44:44.624Z,21.90
2023-04-22T10:47:11.459Z,21.80
2023-04-22T10:49:38.800Z,21.90
2023-04-22T10:52:07.780Z,21.20
2023-04-22T10:54:37.597Z,21.60
2023-04-22T10:57:08.163Z,22.70
2023-04-22T10:59:41.532Z,23.40
2023-04-22T11:02:08.928Z,23.50
2023-04-22T11:04:35.939Z,23.50
2023-04-22T11:07:07.949Z,23.00
2023-04-22T11:09:39.346Z,22.90
2023-04-22T11:12:38.802Z,23.00
2023-04-22T11:15:06.090Z,22.30
2023-04-22T11:17:35.928Z,21.70
2023-04-22T11:20:03.517Z,21.70
2023-04-22T11:22:34.836Z,21.90
2023-04-22T11:25:02.109Z,22.70
2023-04-22T11:27:30.365Z,22.70
2023-04-22T11:30:00.207Z,23.00
2023-04-22T11:32:27.935Z,22.60
2023-04-22T11:34:55.239Z,22.30
2023-04-22T11:37:22.897Z,22.00
2023-04-22T11:40:13.782Z,21.80
2023-04-22T11:42:39.734Z,21.70
2023-04-22T11:45:11.627Z,21.90
2023-04-22T11:47:38.516Z,21.80
2023-04-22T11:50:07.232Z,21.60
2023-04-22T11:52:49.386Z,21.50
2023-04-22T11:55:17.274Z,21.60
2023-04-22T11:57:45.533Z,21.90
2023-04-22T12:00:13.939Z,22.20
2023-04-22T12:02:41.832Z,22.70
2023-04-22T12:05:14.476Z,23.40
2023-04-22T12:07:43.055Z,23.50
2023-04-22T12:10:10.759Z,23.60
2023-04-22T12:12:40.638Z,22.80
2023-04-22T12:15:09.028Z,22.30
2023-04-22T12:17:35.840Z,22.10
2023-04-22T12:20:06.289Z,21.80
2023-04-22T12:22:33.554Z,21.60
2023-04-22T12:25:01.099Z,21.80
2023-04-22T12:27:28.025Z,21.90
2023-04-22T12:29:56.009Z,22.10
2023-04-22T12:32:29.006Z,22.30
2023-04-22T12:34:56.362Z,22.70
2023-04-22T12:39:54.853Z,22.70
2023-04-22T12:42:21.594Z,22.70
2023-04-22T12:44:48.226Z,22.30
2023-04-22T12:47:17.843Z,21.80
2023-04-22T12:49:47.286Z,21.50
2023-04-22T12:52:14.089Z,21.50
2023-04-22T12:54:40.693Z,21.40
2023-04-22T12:57:07.542Z,21.40
2023-04-22T12:59:37.012Z,21.20
2023-04-22T13:02:03.988Z,21.00
2023-04-22T13:04:30.813Z,20.90
2023-04-22T13:06:57.491Z,20.80
2023-04-22T13:09:24.641Z,20.80
2023-04-22T13:11:51.368Z,20.60
2023-04-22T13:14:17.978Z,20.50
2023-04-22T13:16:44.997Z,20.50
2023-04-22T13:19:11.678Z,20.50
2023-04-22T13:21:41.143Z,20.40
2023-04-22T13:24:07.759Z,20.50
2023-04-22T13:26:36.958Z,20.70
2023-04-22T13:29:03.604Z,20.60
2023-04-22T13:31:30.361Z,20.60
2023-04-22T13:33:57.009Z,20.40
2023-04-22T13:36:23.663Z,20.10
2023-04-22T13:38:51.102Z,20.00
2023-04-22T13:41:17.764Z,20.00
2023-04-22T13:43:46.699Z,20.00
2023-04-22T13:46:13.263Z,19.90
2023-04-22T13:48:39.968Z,19.80
2023-04-22T13:51:09.093Z,19.70
2023-04-22T13:53:35.728Z,19.60
2023-04-22T13:56:02.298Z,19.60
2023-04-22T13:58:30.110Z,19.60
2023-04-22T14:00:56.785Z,19.60
2023-04-22T14:03:23.482Z,19.60
2023-04-22T14:05:50.573Z,19.60
2023-04-22T14:08:17.281Z,19.60
2023-04-22T14:10:43.913Z,19.60
2023-04-22T14:13:12.926Z,19.50
2023-04-22T14:15:39.572Z,19.50
2023-04-22T14:18:06.170Z,19.50
2023-04-22T14:20:32.865Z,19.50
2023-04-22T14:23:02.860Z,19.40
2023-04-22T14:25:32.694Z,19.40
2023-04-22T14:28:01.895Z,19.40
2023-04-22T14:30:34.512Z,19.40
2023-04-22T14:33:01.378Z,19.50
2023-04-22T14:35:29.352Z,19.70
2023-04-22T14:37:56.031Z,19.80
2023-04-22T14:40:26.240Z,19.80
2023-04-22T14:42:55.233Z,19.70
2023-04-22T14:45:22.789Z,19.70
2023-04-22T14:47:49.609Z,19.70
2023-04-22T14:50:16.375Z,19.90
2023-04-22T14:52:45.556Z,19.80
2023-04-22T14:55:22.611Z,19.70
2023-04-22T14:57:51.244Z,19.60
2023-04-22T15:00:20.127Z,19.50
2023-04-22T15:02:47.205Z,19.40
2023-04-22T15:05:14.236Z,19.40
2023-04-22T15:07:40.974Z,19.50
2023-04-22T15:10:08.225Z,19.60
2023-04-22T15:12:34.975Z,19.60
2023-04-22T15:15:01.887Z,19.60
2023-04-22T15:17:30.744Z,19.50
2023-04-22T15:19:57.875Z,19.40
2023-04-22T15:22:25.315Z,19.30
2023-04-22T15:24:52.226Z,19.30
2023-04-22T15:27:21.293Z,19.30
2023-04-22T15:29:48.062Z,19.40
2023-04-22T15:32:15.113Z,19.40
2023-04-22T15:34:44.167Z,19.30
2023-04-22T15:37:13.577Z,19.30
2023-04-22T15:39:40.803Z,19.20
2023-04-22T15:42:10.593Z,19.00
2023-04-22T15:44:38.268Z,18.90
2023-04-22T15:47:05.390Z,18.80
2023-04-22T15:49:35.401Z,18.80
2023-04-22T15:52:02.335Z,18.80
2023-04-22T15:54:29.243Z,18.80
2023-04-22T15:56:56.495Z,18.80
2023-04-22T15:59:23.287Z,18.70
2023-04-22T16:01:50.934Z,18.60
2023-04-22T16:04:18.911Z,18.50
2023-04-22T16:06:46.845Z,18.40
2023-04-22T16:09:15.874Z,18.40
2023-04-22T16:11:43.427Z,18.30
2023-04-22T16:14:11.207Z,18.30
2023-04-22T16:16:39.878Z,18.30
2023-04-22T16:19:07.270Z,18.30
2023-04-22T16:21:34.001Z,18.20
2023-04-22T16:24:02.753Z,18.10
2023-04-22T16:26:29.499Z,18.00
2023-04-22T16:28:56.335Z,17.80
2023-04-22T16:31:25.636Z,17.60
2023-04-22T16:33:55.656Z,17.50
2023-04-22T16:36:22.424Z,17.50
2023-04-22T16:38:49.047Z,17.60
2023-04-22T16:41:15.794Z,17.60
2023-04-22T16:43:42.587Z,17.70
2023-04-22T16:46:09.409Z,17.60
2023-04-22T16:48:36.522Z,17.70
2023-04-22T16:51:03.557Z,17.70
2023-04-22T16:53:30.526Z,17.70
2023-04-22T16:55:57.396Z,17.60
2023-04-22T16:58:24.069Z,17.60
2023-04-22T17:00:51.228Z,17.60
2023-04-22T17:03:18.074Z,17.50
2023-04-22T17:05:44.803Z,17.50
2023-04-22T17:08:17.950Z,17.40
2023-04-22T17:10:48.239Z,17.30
2023-04-22T17:13:15.868Z,17.10
2023-04-22T17:15:42.771Z,16.90
2023-04-22T17:18:09.619Z,16.80
2023-04-22T17:20:36.394Z,16.40
2023-04-22T17:23:03.707Z,16.10
2023-04-22T17:25:31.146Z,16.00
2023-04-22T17:27:57.948Z,16.00
2023-04-22T17:30:25.002Z,16.10
2023-04-22T17:32:57.495Z,16.20
2023-04-22T17:35:24.334Z,16.20
2023-04-22T17:37:53.536Z,16.20
2023-04-22T17:40:23.366Z,16.20
2023-04-22T17:42:50.156Z,16.20
2023-04-22T17:45:20.262Z,16.20
2023-04-22T17:47:51.392Z,16.20
2023-04-22T17:50:18.320Z,16.20
2023-04-22T17:52:45.117Z,16.20
2023-04-22T17:55:11.858Z,16.20
2023-04-22T17:57:38.624Z,16.20
2023-04-22T18:00:05.729Z,16.20
2023-04-22T18:02:32.603Z,16.20
2023-04-22T18:05:04.851Z,16.10
2023-04-22T18:07:31.683Z,16.10
2023-04-22T18:09:58.661Z,16.00
2023-04-22T18:12:30.356Z,16.00
2023-04-22T18:14:58.160Z,16.00
2023-04-22T18:17:24.955Z,15.90
2023-04-22T18:20:02.747Z,16.00
2023-04-22T18:22:35.359Z,16.00
2023-04-22T18:25:05.286Z,16.00
2023-04-22T18:27:32.061Z,15.90
2023-04-22T18:29:58.777Z,15.80
2023-04-22T18:32:25.559Z,15.80
2023-04-22T18:34:52.507Z,15.70
2023-04-22T18:37:19.130Z,15.70
2023-04-22T18:39:45.951Z,15.70
2023-04-22T18:42:14.891Z,15.60
2023-04-22T18:44:43.091Z,15.60
2023-04-22T18:47:09.949Z,15.50
2023-04-22T18:49:39.011Z,15.60
2023-04-22T18:52:05.704Z,15.60
2023-04-22T18:54:32.444Z,15.50
2023-04-22T18:56:59.068Z,15.50
2023-04-22T18:59:26.169Z,15.50
2023-04-22T19:01:53.180Z,15.50
2023-04-22T19:04:20.025Z,15.50
2023-04-22T19:06:48.015Z,15.50
2023-04-22T19:09:17.026Z,15.40
2023-04-22T19:11:43.767Z,15.40
2023-04-22T19:14:10.612Z,15.40
2023-04-22T19:16:37.367Z,15.40
2023-04-22T19:19:04.288Z,15.40
2023-04-22T19:21:31.499Z,15.40
2023-04-22T19:24:01.513Z,15.40
2023-04-22T19:26:29.010Z,15.40
2023-04-22T19:28:58.338Z,15.40
2023-04-22T19:31:25.397Z,15.40
2023-04-22T19:33:52.708Z,15.40
2023-04-22T19:36:19.440Z,15.40
2023-04-22T19:38:46.414Z,15.40
2023-04-22T19:41:16.333Z,15.30
2023-04-22T19:43:43.273Z,15.30
2023-04-22T19:46:10.212Z,15.30
2023-04-22T19:48:37.341Z,15.30
2023-04-22T19:51:11.695Z,15.30
2023-04-22T19:53:39.082Z,15.20
2023-04-22T19:56:06.201Z,15.20
2023-04-22T19:58:32.925Z,15.20
2023-04-22T20:01:02.608Z,15.20
2023-04-22T20:03:29.627Z,15.20
2023-04-22T20:05:56.464Z,15.20
2023-04-22T20:08:25.885Z,15.20
2023-04-22T20:10:53.537Z,15.20
2023-04-22T20:13:21.154Z,15.10
2023-04-22T20:15:49.780Z,15.20
2023-04-22T20:18:16.585Z,15.10
2023-04-22T20:20:45.022Z,15.10
2023-04-22T20:23:13.632Z,15.10
2023-04-22T20:25:44.664Z,15.00
2023-04-22T20:28:11.585Z,15.00
2023-04-22T20:30:40.934Z,15.00
2023-04-22T20:33:07.852Z,15.00
2023-04-22T20:35:35.935Z,15.00
2023-04-22T20:38:03.182Z,15.00
2023-04-22T20:40:30.018Z,15.00
2023-04-22T20:42:57.352Z,14.90
2023-04-22T20:45:24.503Z,14.90
2023-04-22T20:47:54.380Z,14.90
2023-04-22T20:50:21.162Z,14.90
2023-04-22T20:52:49.210Z,14.90
2023-04-22T20:55:17.963Z,14.90
2023-04-22T20:57:44.966Z,14.80
2023-04-22T21:00:11.903Z,14.80
2023-04-22T21:02:39.404Z,14.80
2023-04-22T21:05:06.790Z,14.80
2023-04-22T21:07:34.674Z,14.80
2023-04-22T21:10:01.603Z,14.80
2023-04-22T21:12:35.739Z,14.80
2023-04-22T21:15:02.818Z,14.80
2023-04-22T21:17:30.891Z,14.80
2023-04-22T21:19:58.202Z,14.70
2023-04-22T21:22:27.548Z,14.70
2023-04-22T21:24:54.286Z,14.50
2023-04-22T21:27:23.960Z,14.50
2023-04-22T21:29:50.999Z,14.40
2023-04-22T21:32:20.381Z,14.30
2023-04-22T21:34:47.244Z,14.30
2023-04-22T21:37:16.449Z,14.20
2023-04-22T21:39:43.141Z,14.10
2023-04-22T21:42:10.030Z,14.10
2023-04-22T21:44:38.081Z,13.90
2023-04-22T21:47:05.135Z,13.70
2023-04-22T21:49:34.190Z,13.60
2023-04-22T21:52:01.125Z,13.50
2023-04-22T21:54:27.797Z,13.40
2023-04-22T21:56:54.529Z,13.20
2023-04-22T21:59:21.240Z,13.10
2023-04-22T22:01:48.041Z,13.00
2023-04-22T22:04:16.355Z,12.90
2023-04-22T22:06:44.073Z,12.70
2023-04-22T22:09:11.448Z,12.70
2023-04-22T22:11:38.164Z,12.60
2023-04-22T22:14:05.147Z,12.60
2023-04-22T22:16:33.291Z,12.50
2023-04-22T22:19:02.414Z,12.40
2023-04-22T22:21:29.039Z,12.40
2023-04-22T22:23:58.091Z,12.40
2023-04-22T22:26:25.972Z,12.30
2023-04-22T22:28:53.932Z,12.30
2023-04-22T22:31:20.796Z,12.30
2023-04-22T22:33:47.613Z,12.30
2023-04-22T22:36:14.559Z,12.30
2023-04-22T22:38:41.153Z,12.30
2023-04-22T22:41:07.836Z,12.20
2023-04-22T22:43:34.477Z,12.20
2023-04-22T22:46:01.363Z,12.20
2023-04-22T22:48:33.305Z,12.20
2023-04-22T22:51:00.110Z,12.20
2023-04-22T22:53:26.898Z,12.20
2023-04-22T22:55:53.911Z,12.20
2023-04-22T22:58:20.681Z,12.10
2023-04-22T23:00:47.455Z,12.00
2023-04-22T23:03:14.282Z,12.00
2023-04-22T23:05:41.337Z,12.00
2023-04-22T23:08:07.999Z,12.00
2023-04-22T23:10:34.646Z,12.00
2023-04-22T23:13:01.341Z,12.00
2023-04-22T23:15:28.063Z,12.00
2023-04-22T23:17:54.718Z,12.00
2023-04-22T23:20:22.168Z,11.80
2023-04-22T23:22:49.517Z,11.80
2023-04-22T23:25:16.644Z,11.80
2023-04-22T23:27:43.594Z,11.80
2023-04-22T23:30:11.148Z,11.70
2023-04-22T23:32:39.661Z,11.70
2023-04-22T23:35:07.809Z,11.70
2023-04-22T23:37:34.555Z,11.70
2023-04-22T23:40:01.464Z,11.60
2023-04-22T23:42:28.117Z,11.60
2023-04-22T23:44:54.956Z,11.60
2023-04-22T23:47:21.599Z,11.60
2023-04-22T23:49:48.225Z,11.60
2023-04-22T23:52:14.854Z,11.70
2023-04-22T23:54:41.985Z,11.60
2023-04-22T23:57:09.047Z,11.60
2023-04-22T23:59:38.026Z,11.60
